Time;durP1;ratioP1;P1;durP2;ratioP2;P2;SDS_P1;SDS_P2;PMS_P1;PMS_P2;Temp;Humidity;BMP_temperature;BMP_pressure;BME280_temperature;BME280_humidity;BME280_pressure;Samples;Min_cycle;Max_cycle;Signal;HPM_P1;HPM_P2
2022/08/12 00:42:57;;;;;;;10.25;6.38;;;19.20;99.90;;;;;;5053576;28;20469;-68
2022/08/12 00:45:22;;;;;;;10.48;6.32;;;19.10;99.90;;;;;;5036397;28;20084;-69
2022/08/12 00:47:51;;;;;;;7.70;5.75;;;19.10;99.90;;;;;;5053518;28;20041;-66
2022/08/12 00:50:19;;;;;;;9.93;6.35;;;19.00;99.90;;;;;;5053574;28;20044;-68
2022/08/12 00:52:48;;;;;;;7.88;6.28;;;19.00;99.90;;;;;;5035632;28;20059;-69
2022/08/12 00:55:14;;;;;;;12.48;6.82;;;19.00;99.90;;;;;;5052392;28;20506;-68
2022/08/12 00:57:46;;;;;;;8.13;6.15;;;19.00;99.90;;;;;;5052864;28;20107;-68
2022/08/12 01:00:20;;;;;;;14.50;6.90;;;18.90;99.90;;;;;;5053732;28;20052;-69
2022/08/12 01:02:51;;;;;;;10.95;6.13;;;18.90;99.90;;;;;;5054557;28;20049;-68
2022/08/12 01:13:39;;;;;;;11.27;6.30;;;18.80;99.90;;;;;;5053385;28;20056;-67
2022/08/12 01:16:07;;;;;;;11.00;5.90;;;18.80;99.90;;;;;;5054514;28;20376;-68
2022/08/12 01:18:37;;;;;;;;;;;18.80;99.90;;;;;;5053959;28;20041;-69
2022/08/12 01:21:27;;;;;;;11.07;6.65;;;18.80;99.90;;;;;;5052191;28;20011;-68
2022/08/12 01:24:21;;;;;;;29.98;6.90;;;18.80;99.90;;;;;;5053860;28;20124;-68
2022/08/12 01:26:47;;;;;;;9.50;5.97;;;18.80;99.90;;;;;;5038506;28;20048;-68
2022/08/12 01:29:26;;;;;;;7.85;6.15;;;18.80;99.90;;;;;;5053733;28;20188;-67
2022/08/12 01:31:55;;;;;;;8.70;6.30;;;18.80;99.90;;;;;;5053886;28;20092;-68
2022/08/12 01:34:35;;;;;;;11.60;5.65;;;18.70;99.90;;;;;;5036029;28;20053;-68
2022/08/12 01:37:02;;;;;;;9.70;6.10;;;18.70;99.90;;;;;;5067640;28;20055;-68
2022/08/12 01:39:32;;;;;;;9.23;6.05;;;18.70;99.90;;;;;;5060201;28;20059;-67
2022/08/12 01:42:03;;;;;;;8.70;5.93;;;18.70;99.90;;;;;;5066208;28;20394;-69
2022/08/12 01:44:31;;;;;;;7.97;6.78;;;18.70;99.90;;;;;;5061595;28;20048;-68
2022/08/12 01:47:17;;;;;;;;;;;18.60;99.90;;;;;;5052089;28;20045;-69
2022/08/12 01:49:54;;;;;;;10.98;7.00;;;18.60;99.90;;;;;;5049578;28;20287;-67
2022/08/12 01:52:46;;;;;;;18.98;6.63;;;18.60;99.90;;;;;;5066306;28;20041;-67
2022/08/12 01:55:14;;;;;;;8.18;5.97;;;18.60;99.90;;;;;;5027587;28;20087;-68
2022/08/12 01:57:49;;;;;;;7.43;5.82;;;18.60;99.90;;;;;;5054354;28;20052;-69
2022/08/12 02:00:17;;;;;;;13.43;6.47;;;18.60;99.90;;;;;;5072620;28;20390;-68
2022/08/12 02:02:46;;;;;;;12.75;6.82;;;18.50;99.90;;;;;;5035635;28;20406;-68
2022/08/12 02:11:43;;;;;;;7.47;5.82;;;18.50;99.90;;;;;;5076072;28;20052;-68
2022/08/12 02:14:33;;;;;;;10.05;6.95;;;18.50;99.90;;;;;;5057989;28;20154;-69
2022/08/12 02:17:27;;;;;;;9.32;6.70;;;18.50;99.90;;;;;;5056043;28;20045;-68
2022/08/12 02:20:11;;;;;;;9.23;6.82;;;18.50;99.90;;;;;;5056024;28;20041;-68
2022/08/12 02:22:47;;;;;;;8.60;6.45;;;18.40;99.90;;;;;;5056438;28;20043;-67
2022/08/12 02:25:20;;;;;;;7.88;6.07;;;18.40;99.90;;;;;;5056119;28;20078;-68
2022/08/12 02:27:48;;;;;;;13.35;6.75;;;18.40;99.90;;;;;;5055724;28;20040;-68
2022/08/12 02:30:18;;;;;;;7.70;6.13;;;18.40;99.90;;;;;;5038043;28;20088;-69
2022/08/12 02:32:46;;;;;;;10.77;6.50;;;18.30;99.90;;;;;;5037830;28;20395;-67
2022/08/12 02:35:20;;;;;;;9.70;6.72;;;18.30;99.90;;;;;;5055748;28;20047;-68
2022/08/12 02:37:48;;;;;;;13.60;7.55;;;18.30;99.90;;;;;;5070386;28;20056;-68
2022/08/12 02:40:16;;;;;;;8.50;6.65;;;18.30;99.90;;;;;;5074324;28;20401;-68
2022/08/12 02:42:49;;;;;;;;;;;18.20;99.90;;;;;;5056263;28;20037;-68
2022/08/12 02:45:20;;;;;;;11.02;6.72;;;18.20;99.90;;;;;;5037957;28;20330;-69
2022/08/12 02:47:53;;;;;;;8.88;7.18;;;18.20;99.90;;;;;;5021633;28;20044;-69
2022/08/12 02:50:21;;;;;;;11.32;7.47;;;18.20;99.90;;;;;;5056015;28;20033;-69
2022/08/12 02:52:50;;;;;;;8.43;6.65;;;18.20;99.90;;;;;;5037532;28;20103;-68
2022/08/12 02:55:20;;;;;;;9.60;6.30;;;18.20;99.90;;;;;;5037337;28;20045;-69
2022/08/12 02:57:46;;;;;;;7.50;6.28;;;18.20;99.90;;;;;;5055497;28;20057;-68
2022/08/12 03:00:17;;;;;;;8.73;6.63;;;18.10;99.90;;;;;;5037153;28;20072;-69
2022/08/12 03:02:45;;;;;;;10.40;6.70;;;18.10;99.90;;;;;;5037311;28;20052;-69
2022/08/12 03:05:22;;;;;;;9.13;6.75;;;18.10;99.90;;;;;;5020677;28;20055;-70
2022/08/12 03:07:52;;;;;;;11.85;6.50;;;18.20;99.90;;;;;;5054769;28;20044;-68
2022/08/12 03:10:23;;;;;;;11.35;7.10;;;18.10;99.90;;;;;;5037632;28;20032;-70
2022/08/12 03:12:53;;;;;;;9.20;6.63;;;18.10;99.90;;;;;;5055440;28;20044;-68
2022/08/12 03:15:22;;;;;;;8.93;6.63;;;18.10;99.90;;;;;;5055074;28;20120;-68
2022/08/12 03:18:11;;;;;;;8.63;6.50;;;18.10;99.90;;;;;;5053815;28;20495;-68
2022/08/12 03:20:39;;;;;;;;;;;18.10;99.90;;;;;;5070482;28;20048;-67
2022/08/12 03:23:13;;;;;;;16.85;7.57;;;18.10;99.90;;;;;;5074318;28;19920;-69
2022/08/12 03:25:41;;;;;;;15.10;6.28;;;18.00;99.90;;;;;;5075044;28;20044;-68
2022/08/12 03:28:10;;;;;;;;;;;18.00;99.90;;;;;;5075044;28;20509;-68
2022/08/12 03:30:37;;;;;;;8.65;6.80;;;18.10;99.90;;;;;;5064169;28;19920;-67
2022/08/12 03:33:04;;;;;;;11.23;7.10;;;18.00;99.90;;;;;;5054383;28;20045;-68
2022/08/12 03:35:32;;;;;;;9.10;5.78;;;18.00;99.90;;;;;;5037099;28;20079;-67
2022/08/12 03:38:00;;;;;;;8.82;6.50;;;18.00;99.90;;;;;;5051478;28;20521;-68
2022/08/12 04:00:22;;;;;;;11.57;6.13;;;17.80;99.90;;;;;;5034278;28;20048;-69
2022/08/12 04:02:54;;;;;;;8.75;6.32;;;17.80;99.90;;;;;;5054096;28;20522;-67
2022/08/12 04:05:20;;;;;;;13.07;6.05;;;17.80;99.90;;;;;;5054236;28;20132;-67
2022/08/12 04:07:46;;;;;;;11.48;6.30;;;17.80;99.90;;;;;;5036356;28;20039;-68
2022/08/12 04:10:13;;;;;;;10.55;7.05;;;17.80;99.90;;;;;;5053751;28;20041;-68
2022/08/12 04:15:44;;;;;;;11.15;5.30;;;17.80;99.90;;;;;;5030884;28;20502;-69
2022/08/12 04:18:17;;;;;;;8.98;6.80;;;17.80;99.90;;;;;;5019128;28;20105;-68
2022/08/12 04:20:45;;;;;;;9.48;6.97;;;17.80;99.90;;;;;;5053477;28;20060;-68
2022/08/12 04:23:14;;;;;;;12.18;6.03;;;17.80;99.90;;;;;;5035620;28;20426;-68
2022/08/12 04:25:41;;;;;;;9.60;5.75;;;17.80;99.90;;;;;;5053346;28;20044;-68
2022/08/12 04:28:08;;;;;;;9.82;5.60;;;17.80;99.90;;;;;;5053633;28;20124;-69
2022/08/12 04:30:35;;;;;;;8.30;6.38;;;17.80;99.90;;;;;;5053972;28;20424;-68
2022/08/12 04:33:01;;;;;;;8.05;6.05;;;17.80;99.90;;;;;;5035602;28;20045;-68
2022/08/12 04:35:30;;;;;;;8.70;5.97;;;17.80;99.90;;;;;;5053304;28;20049;-68
2022/08/12 04:37:57;;;;;;;9.68;6.43;;;17.80;99.90;;;;;;5070474;28;20106;-66
2022/08/12 04:40:25;;;;;;;9.73;5.75;;;17.80;99.90;;;;;;5054886;28;20068;-68
2022/08/12 04:42:51;;;;;;;10.25;5.75;;;17.80;99.90;;;;;;5053348;28;20037;-68
2022/08/12 04:45:38;;;;;;;10.30;5.88;;;17.80;99.90;;;;;;5053112;28;20465;-67
2022/08/12 04:48:04;;;;;;;8.95;5.35;;;17.80;99.90;;;;;;5035128;28;20102;-68
2022/08/12 04:50:31;;;;;;;10.43;5.22;;;17.80;99.90;;;;;;5053392;28;20067;-68
2022/08/12 04:52:59;;;;;;;13.80;5.90;;;17.80;99.90;;;;;;5033474;28;20442;-68
2022/08/12 04:55:26;;;;;;;9.23;5.20;;;17.90;99.90;;;;;;5035320;28;20082;-69
2022/08/12 04:57:53;;;;;;;8.47;4.90;;;17.80;99.90;;;;;;5051873;28;20406;-69
2022/08/12 05:00:18;;;;;;;9.50;5.57;;;17.90;99.90;;;;;;5052821;28;20299;-69
2022/08/12 05:02:44;;;;;;;9.20;5.25;;;17.90;99.90;;;;;;5052770;28;20445;-68
2022/08/12 05:05:19;;;;;;;11.27;6.25;;;17.90;99.90;;;;;;5052830;28;20119;-68
2022/08/12 05:07:49;;;;;;;7.97;5.80;;;17.90;99.90;;;;;;5041110;28;20551;-68
2022/08/12 05:10:16;;;;;;;7.80;5.88;;;17.90;99.90;;;;;;5052677;28;20045;-69
2022/08/12 05:12:53;;;;;;;7.97;5.80;;;18.00;99.90;;;;;;5052870;28;20131;-68
2022/08/12 05:15:19;;;;;;;12.60;6.20;;;18.00;99.90;;;;;;5052358;28;20045;-68
2022/08/12 05:17:45;;;;;;;12.82;6.32;;;18.00;99.90;;;;;;5052729;28;20116;-69
2022/08/12 05:20:14;;;;;;;14.40;6.35;;;18.10;99.90;;;;;;5036242;28;20459;-68
2022/08/12 05:22:44;;;;;;;11.88;5.78;;;18.10;99.90;;;;;;5052986;28;20477;-68
2022/08/12 05:25:10;;;;;;;9.07;5.78;;;18.10;99.90;;;;;;5052921;28;20052;-68
2022/08/12 05:27:40;;;;;;;11.63;6.30;;;18.10;99.90;;;;;;5052252;28;20120;-67
2022/08/12 05:30:07;;;;;;;11.32;5.95;;;18.10;99.90;;;;;;5052650;28;20045;-68
2022/08/12 05:32:33;;;;;;;13.85;6.60;;;18.20;99.90;;;;;;5052765;28;20041;-68
2022/08/12 05:35:05;;;;;;;10.55;5.60;;;18.30;99.90;;;;;;5035050;28;20128;-67
2022/08/12 05:37:35;;;;;;;9.38;5.55;;;18.30;99.90;;;;;;5062331;28;20056;-69
2022/08/12 05:40:03;;;;;;;11.05;5.82;;;18.40;99.90;;;;;;5034785;28;20059;-68
2022/08/12 05:42:28;;;;;;;11.93;4.95;;;18.50;99.90;;;;;;5018221;28;20060;-67
2022/08/12 05:44:54;;;;;;;7.10;5.22;;;18.50;99.90;;;;;;5052409;28;20041;-69
2022/08/12 05:47:20;;;;;;;7.43;4.93;;;18.60;99.90;;;;;;5053008;28;20112;-69
2022/08/12 05:49:49;;;;;;;9.93;5.10;;;18.60;99.90;;;;;;5052181;28;20045;-68
2022/08/12 05:52:17;;;;;;;7.63;4.88;;;18.70;99.90;;;;;;5034607;28;20183;-69
2022/08/12 05:54:44;;;;;;;9.93;5.05;;;18.80;99.90;;;;;;5034251;28;20048;-68
2022/08/12 05:57:11;;;;;;;6.57;4.80;;;18.90;99.90;;;;;;5033736;28;20048;-68
2022/08/12 05:59:38;;;;;;;7.20;4.53;;;18.90;99.90;;;;;;5052434;28;20044;-68
2022/08/12 06:02:06;;;;;;;5.78;4.70;;;19.00;99.90;;;;;;5052464;28;20147;-69
2022/08/12 06:04:33;;;;;;;5.28;3.83;;;19.10;99.90;;;;;;5052300;28;20398;-68
2022/08/12 06:07:00;;;;;;;10.65;4.30;;;19.10;99.90;;;;;;5053455;28;20179;-68
2022/08/12 06:09:29;;;;;;;8.52;4.10;;;19.20;99.90;;;;;;5052881;28;20121;-69
2022/08/12 06:11:56;;;;;;;15.80;4.68;;;19.30;99.90;;;;;;5053066;28;20083;-69
2022/08/12 06:14:21;;;;;;;9.10;4.72;;;19.40;99.90;;;;;;5052793;28;20495;-67
2022/08/12 06:16:50;;;;;;;9.73;4.00;;;19.50;99.90;;;;;;5034756;28;20085;-68
2022/08/12 06:19:17;;;;;;;9.65;4.32;;;19.60;99.90;;;;;;5052300;28;20037;-69
2022/08/12 06:21:47;;;;;;;8.68;4.50;;;19.60;99.90;;;;;;5034245;28;20434;-69
2022/08/12 06:24:14;;;;;;;8.73;4.05;;;19.80;99.90;;;;;;5052712;28;20060;-69
2022/08/12 06:26:40;;;;;;;9.13;3.95;;;19.90;99.90;;;;;;5052375;28;20041;-68
2022/08/12 06:29:09;;;;;;;11.15;4.00;;;20.00;99.90;;;;;;5034330;28;20080;-68
2022/08/12 06:31:34;;;;;;;8.68;4.03;;;20.30;99.90;;;;;;5034800;28;20509;-68
2022/08/12 06:34:01;;;;;;;11.60;3.72;;;20.50;99.90;;;;;;5051701;28;20041;-68
2022/08/12 06:36:27;;;;;;;6.60;3.80;;;20.80;99.90;;;;;;5056439;28;20059;-68
2022/08/12 06:38:53;;;;;;;11.55;3.88;;;21.30;99.90;;;;;;5071833;28;20048;-67
2022/08/12 06:44:21;;;;;;;9.32;3.17;;;22.40;99.90;;;;;;4990264;28;20080;-68
2022/08/12 06:46:46;;;;;;;9.07;3.70;;;22.90;99.90;;;;;;5022140;28;20082;-68
2022/08/12 06:49:12;;;;;;;11.20;3.35;;;23.30;99.90;;;;;;5052070;28;20049;-69
2022/08/12 06:51:39;;;;;;;7.05;3.55;;;23.20;99.90;;;;;;5051538;28;20045;-67
2022/08/12 06:54:04;;;;;;;8.10;4.03;;;23.00;99.90;;;;;;5036424;28;20495;-68
2022/08/12 06:56:30;;;;;;;7.75;3.40;;;22.90;99.90;;;;;;5072427;28;20036;-67
2022/08/12 06:58:56;;;;;;;6.82;3.55;;;22.80;99.90;;;;;;5075429;28;20110;-67
2022/08/12 07:01:23;;;;;;;7.60;3.00;;;22.70;99.90;;;;;;5044194;28;20490;-67
2022/08/12 07:03:50;;;;;;;7.55;3.22;;;22.70;99.90;;;;;;5055574;28;20036;-69
2022/08/12 07:06:16;;;;;;;8.90;3.50;;;22.70;99.90;;;;;;5055382;28;20080;-69
2022/08/12 07:08:44;;;;;;;5.90;2.85;;;22.80;99.90;;;;;;5037697;28;20095;-68
2022/08/12 07:11:12;;;;;;;7.90;3.17;;;22.90;99.90;;;;;;5055081;28;20103;-68
2022/08/12 07:13:44;;;;;;;10.63;3.50;;;23.00;99.90;;;;;;5053622;28;20072;-67
2022/08/12 07:16:16;;;;;;;11.15;3.35;;;23.20;99.90;;;;;;5054999;28;20124;-68
2022/08/12 07:18:44;;;;;;;10.63;3.08;;;23.30;99.90;;;;;;5054959;28;20049;-68
2022/08/12 07:21:11;;;;;;;7.55;2.85;;;23.40;99.90;;;;;;5037247;28;20055;-68
2022/08/12 07:23:40;;;;;;;6.40;3.03;;;23.50;99.90;;;;;;5067094;28;20486;-68
2022/08/12 07:26:08;;;;;;;4.75;2.67;;;23.50;99.90;;;;;;5057079;28;20469;-67
2022/08/12 07:28:35;;;;;;;5.15;2.80;;;23.50;99.90;;;;;;5069895;28;20116;-66
2022/08/12 07:31:06;;;;;;;12.98;2.72;;;23.60;99.90;;;;;;5054861;28;20415;-67
2022/08/12 07:33:39;;;;;;;8.68;2.90;;;23.70;99.90;;;;;;5054833;28;20452;-67
2022/08/12 07:36:09;;;;;;;9.13;2.60;;;23.70;99.90;;;;;;5022460;28;20056;-67
2022/08/12 07:38:45;;;;;;;9.00;2.50;;;23.80;99.90;;;;;;5057329;28;20498;-68
2022/08/12 07:41:17;;;;;;;4.65;2.53;;;23.90;99.40;;;;;;5056555;28;20098;-69
2022/08/12 07:43:47;;;;;;;7.43;2.70;;;24.00;99.50;;;;;;5052746;28;20061;-68
2022/08/12 07:46:21;;;;;;;6.57;2.60;;;24.10;99.40;;;;;;5037210;28;20052;-68
2022/08/12 07:48:55;;;;;;;5.20;2.60;;;24.20;99.40;;;;;;5036906;28;20059;-67
2022/08/12 07:51:22;;;;;;;5.43;2.67;;;24.40;98.60;;;;;;5036578;28;20053;-69
2022/08/12 07:53:52;;;;;;;15.40;3.25;;;24.40;98.20;;;;;;5054809;28;20434;-67
2022/08/12 07:56:18;;;;;;;5.68;2.58;;;24.50;97.80;;;;;;5054381;28;20091;-69
2022/08/12 07:58:44;;;;;;;11.38;3.20;;;24.60;97.80;;;;;;5054790;28;20076;-69
2022/08/12 08:01:14;;;;;;;12.52;2.70;;;24.60;97.60;;;;;;5036817;28;20045;-67
2022/08/12 08:06:26;;;;;;;7.10;2.38;;;24.90;97.40;;;;;;5053933;28;20491;-69
2022/08/12 08:08:55;;;;;;;7.45;2.85;;;25.00;96.90;;;;;;5054273;28;20052;-67
2022/08/12 08:14:12;;;;;;;4.72;2.40;;;25.20;96.50;;;;;;5054592;28;20049;-69
2022/08/12 08:16:40;;;;;;;6.75;2.50;;;25.40;96.70;;;;;;5036082;28;20136;-69
2022/08/12 08:19:07;;;;;;;9.35;2.50;;;25.50;96.20;;;;;;5036067;28;20406;-67
2022/08/12 08:21:34;;;;;;;27.95;2.75;;;25.60;95.80;;;;;;5036199;28;20068;-68
2022/08/12 08:24:15;;;;;;;11.45;2.35;;;25.70;95.40;;;;;;5054264;28;20049;-68
2022/08/12 08:26:47;;;;;;;8.77;2.22;;;25.90;95.50;;;;;;5058503;28;20052;-69
2022/08/12 08:29:17;;;;;;;6.55;2.50;;;26.00;95.40;;;;;;5073438;28;20097;-68
2022/08/12 08:31:49;;;;;;;5.20;2.17;;;26.20;93.90;;;;;;5065814;28;20052;-67
2022/08/12 08:34:16;;;;;;;9.18;2.45;;;26.20;93.70;;;;;;5035952;28;20041;-67
2022/08/12 08:36:42;;;;;;;6.88;3.20;;;26.30;93.10;;;;;;5058625;28;20411;-68
2022/08/12 08:39:09;;;;;;;6.70;2.40;;;26.40;92.10;;;;;;5053365;28;20102;-69
2022/08/12 08:44:20;;;;;;;12.23;2.58;;;26.50;91.20;;;;;;5053280;28;20057;-68
2022/08/12 08:46:48;;;;;;;9.60;3.03;;;26.60;91.70;;;;;;5035719;28;20124;-68
2022/08/12 08:49:14;;;;;;;2.78;2.00;;;26.70;91.50;;;;;;5053204;28;20150;-68
2022/08/12 08:51:46;;;;;;;6.28;2.67;;;26.80;91.10;;;;;;5053261;28;20115;-67
2022/08/12 08:54:12;;;;;;;7.97;2.58;;;26.90;91.40;;;;;;5052896;28;20044;-66
2022/08/12 08:56:48;;;;;;;5.15;2.42;;;26.90;90.80;;;;;;5051769;28;20126;-67
2022/08/12 08:59:16;;;;;;;4.78;2.47;;;27.10;90.90;;;;;;5053729;28;20083;-67
2022/08/12 09:01:42;;;;;;;7.10;3.13;;;27.20;90.70;;;;;;5052876;28;20179;-67
2022/08/12 09:04:11;;;;;;;5.27;3.10;;;27.40;90.60;;;;;;5052074;28;20044;-67
2022/08/12 09:06:38;;;;;;;8.65;2.65;;;27.50;90.50;;;;;;5034543;28;20041;-67
2022/08/12 09:09:08;;;;;;;8.93;2.28;;;27.60;90.60;;;;;;5035788;28;20037;-67
2022/08/12 09:14:20;;;;;;;4.22;2.67;;;27.90;88.40;;;;;;5053411;28;20136;-67
2022/08/12 09:16:48;;;;;;;4.78;2.80;;;28.10;88.00;;;;;;5052542;28;20080;-69
2022/08/12 09:19:17;;;;;;;9.27;2.50;;;28.20;86.50;;;;;;5035733;28;20103;-68
2022/08/12 09:21:47;;;;;;;7.35;2.22;;;28.20;83.20;;;;;;5053772;28;20054;-66
2022/08/12 09:24:18;;;;;;;7.85;2.70;;;28.30;83.00;;;;;;5053264;28;20127;-67
2022/08/12 09:26:46;;;;;;;4.63;2.17;;;28.40;82.20;;;;;;5035038;28;20128;-68
2022/08/12 09:29:19;;;;;;;5.15;2.47;;;28.50;80.60;;;;;;5053079;28;20049;-66
2022/08/12 09:31:46;;;;;;;6.38;2.30;;;28.60;79.40;;;;;;5037244;28;20053;-67
2022/08/12 09:34:12;;;;;;;;;;;28.70;78.00;;;;;;5035273;28;20052;-67
2022/08/12 09:36:38;;;;;;;3.70;1.95;;;28.70;74.70;;;;;;5058888;28;19920;-66
2022/08/12 09:39:13;;;;;;;6.25;2.60;;;28.80;74.90;;;;;;5072427;28;20044;-69
2022/08/12 09:41:40;;;;;;;6.78;2.42;;;28.90;72.20;;;;;;5034837;28;20041;-69
2022/08/12 09:46:50;;;;;;;7.40;2.20;;;29.00;73.00;;;;;;5052558;28;20044;-68
2022/08/12 09:49:16;;;;;;;5.68;2.40;;;29.10;71.90;;;;;;5034569;28;20098;-65
2022/08/12 09:51:42;;;;;;;5.00;2.30;;;29.10;71.60;;;;;;5034601;28;20395;-68
2022/08/12 09:54:11;;;;;;;12.77;2.50;;;29.20;71.90;;;;;;5052444;28;20045;-66
2022/08/12 09:56:41;;;;;;;5.22;2.35;;;29.40;71.50;;;;;;5034411;28;20411;-68
2022/08/12 09:59:10;;;;;;;6.15;2.58;;;29.50;71.10;;;;;;5052151;28;20045;-68
2022/08/12 10:01:42;;;;;;;5.55;2.75;;;29.70;70.60;;;;;;5052215;28;20084;-65
2022/08/12 10:04:09;;;;;;;5.88;2.25;;;29.70;69.70;;;;;;5034819;28;20086;-66
2022/08/12 10:06:38;;;;;;;7.72;2.38;;;29.90;69.50;;;;;;5034510;28;20052;-67
2022/08/12 10:09:09;;;;;;;5.97;2.40;;;30.00;68.80;;;;;;5034682;28;20084;-69
2022/08/12 10:14:20;;;;;;;9.05;2.30;;;30.20;68.20;;;;;;5052045;28;20141;-67
2022/08/12 10:16:46;;;;;;;5.47;2.28;;;30.30;67.70;;;;;;5034598;28;20106;-67
2022/08/12 10:19:17;;;;;;;8.60;3.00;;;30.30;67.30;;;;;;5052572;28;20049;-68
2022/08/12 10:21:44;;;;;;;7.85;2.90;;;30.40;65.70;;;;;;5034317;28;20051;-67
2022/08/12 10:24:13;;;;;;;6.65;2.60;;;30.40;66.20;;;;;;5052573;28;20513;-69
2022/08/12 10:29:46;;;;;;;6.32;2.53;;;30.70;65.40;;;;;;5056022;28;20057;-67
2022/08/12 10:32:20;;;;;;;9.65;2.40;;;30.70;64.70;;;;;;5038197;28;20049;-68
2022/08/12 10:34:52;;;;;;;8.75;2.38;;;30.80;61.90;;;;;;5054487;28;20505;-66
2022/08/12 10:37:19;;;;;;;8.32;2.40;;;30.90;62.20;;;;;;5067464;28;20340;-68
2022/08/12 10:39:45;;;;;;;4.53;2.50;;;31.20;62.70;;;;;;5075621;28;20490;-67
2022/08/12 10:45:02;;;;;;;3.67;2.20;;;31.60;61.50;;;;;;5055555;28;20474;-66
2022/08/12 10:47:29;;;;;;;5.05;2.25;;;31.70;60.40;;;;;;5038238;28;20068;-67
2022/08/12 10:49:55;;;;;;;4.97;2.45;;;31.90;60.60;;;;;;5037640;28;20077;-67
2022/08/12 10:52:24;;;;;;;4.00;2.00;;;32.10;59.50;;;;;;5056029;28;20056;-68
2022/08/12 10:54:51;;;;;;;6.07;2.63;;;32.30;59.20;;;;;;5025902;28;20053;-68
2022/08/12 10:57:22;;;;;;;4.60;2.03;;;32.60;58.20;;;;;;5055489;28;20052;-67
2022/08/12 10:59:48;;;;;;;4.50;1.98;;;32.80;58.50;;;;;;5055382;28;20500;-67
2022/08/12 11:02:14;;;;;;;4.35;2.08;;;33.00;57.80;;;;;;5054194;28;20044;-67
2022/08/12 11:04:41;;;;;;;8.60;2.20;;;33.20;56.80;;;;;;5055770;28;20049;-67
2022/08/12 11:07:08;;;;;;;4.57;2.28;;;33.00;55.50;;;;;;5037502;28;20551;-69
2022/08/12 11:09:37;;;;;;;5.85;2.15;;;33.10;55.50;;;;;;5055081;28;20411;-67
2022/08/12 11:12:05;;;;;;;5.10;2.20;;;33.10;54.80;;;;;;5037164;28;20041;-68
2022/08/12 11:14:36;;;;;;;6.20;1.90;;;33.20;55.50;;;;;;5055303;28;20055;-68
2022/08/12 11:17:11;;;;;;;37.38;3.08;;;33.20;54.20;;;;;;5055227;28;20037;-67
2022/08/12 11:19:39;;;;;;;3.75;2.10;;;33.40;54.20;;;;;;5037996;28;20041;-68
2022/08/12 11:22:09;;;;;;;4.90;2.13;;;33.40;53.70;;;;;;5036809;28;20052;-67
2022/08/12 11:24:36;;;;;;;4.95;2.30;;;33.60;52.70;;;;;;5055158;28;20041;-67
2022/08/12 11:27:05;;;;;;;5.65;2.28;;;33.50;52.90;;;;;;5042968;28;20060;-67
2022/08/12 11:29:31;;;;;;;5.13;2.22;;;33.60;52.80;;;;;;5061756;28;20099;-67
2022/08/12 11:31:57;;;;;;;5.55;2.15;;;33.50;52.80;;;;;;5020773;28;20398;-68
2022/08/12 11:34:23;;;;;;;8.90;2.03;;;33.60;52.30;;;;;;5036785;28;20558;-68
2022/08/12 11:37:06;;;;;;;5.95;2.55;;;33.50;52.30;;;;;;5062874;28;20045;-67
2022/08/12 11:39:35;;;;;;;3.65;1.92;;;33.50;52.70;;;;;;5038876;28;20040;-66
2022/08/12 11:42:05;;;;;;;6.70;1.83;;;33.40;52.70;;;;;;5054901;28;20132;-67
2022/08/12 11:44:31;;;;;;;6.38;2.13;;;33.50;53.00;;;;;;5036737;28;20037;-69
2022/08/12 11:46:57;;;;;;;4.07;2.07;;;33.50;52.30;;;;;;5054740;28;20123;-68
2022/08/12 11:49:27;;;;;;;5.25;2.00;;;33.50;52.40;;;;;;5054769;28;20132;-68
2022/08/12 11:51:52;;;;;;;8.05;2.03;;;33.60;51.90;;;;;;5054531;28;20072;-68
2022/08/12 11:54:18;;;;;;;13.57;2.30;;;33.60;51.30;;;;;;5072981;28;20068;-67
2022/08/12 11:56:46;;;;;;;2.53;1.70;;;33.70;52.00;;;;;;5039849;28;20124;-68
2022/08/12 11:59:12;;;;;;;7.03;2.20;;;33.80;52.30;;;;;;5073748;28;20072;-68
2022/08/12 12:01:38;;;;;;;11.70;2.10;;;33.80;52.40;;;;;;5074309;28;20040;-72
2022/08/12 12:04:03;;;;;;;3.60;1.67;;;34.00;53.00;;;;;;5056026;28;20041;-69
2022/08/12 12:06:29;;;;;;;7.00;1.90;;;34.10;52.20;;;;;;5036459;28;20041;-67
2022/08/12 12:08:55;;;;;;;5.63;1.90;;;33.90;51.10;;;;;;5054198;28;20069;-68
2022/08/12 12:11:22;;;;;;;7.67;2.30;;;33.60;51.30;;;;;;5036120;28;20419;-67
2022/08/12 12:13:48;;;;;;;;;;;33.60;51.10;;;;;;5054395;28;20120;-66
2022/08/12 12:16:13;;;;;;;5.18;1.88;;;33.40;51.60;;;;;;5053885;28;19977;-68
2022/08/12 12:18:39;;;;;;;5.03;2.17;;;33.30;52.60;;;;;;5036770;28;20041;-68
2022/08/12 12:21:09;;;;;;;10.73;2.23;;;33.30;52.40;;;;;;5054400;28;20041;-67
2022/08/12 12:23:35;;;;;;;7.10;2.13;;;33.50;52.40;;;;;;5054058;28;20083;-67
2022/08/12 12:26:05;;;;;;;3.53;1.70;;;33.50;52.10;;;;;;5064948;28;20108;-67
2022/08/12 12:28:31;;;;;;;7.25;2.30;;;33.70;53.10;;;;;;5073585;28;20048;-69
2022/08/12 12:31:01;;;;;;;4.18;2.10;;;33.80;52.90;;;;;;5055412;28;20406;-67
2022/08/12 12:33:29;;;;;;;6.57;1.92;;;33.80;51.60;;;;;;5058688;28;20132;-70
2022/08/12 12:35:54;;;;;;;4.38;2.00;;;33.70;51.40;;;;;;5054188;28;20406;-68
2022/08/12 12:38:21;;;;;;;8.30;1.73;;;33.60;51.80;;;;;;5056956;28;20049;-68
2022/08/12 12:40:47;;;;;;;6.88;1.90;;;33.60;52.10;;;;;;5053382;28;20120;-69
2022/08/12 12:43:14;;;;;;;6.72;1.98;;;33.70;52.50;;;;;;5035263;28;20046;-68
2022/08/12 12:45:42;;;;;;;3.10;1.83;;;33.60;51.90;;;;;;5053769;28;20048;-66
2022/08/12 12:48:16;;;;;;;4.75;1.88;;;33.80;51.20;;;;;;5053141;28;20045;-68
2022/08/12 12:53:39;;;;;;;8.68;2.10;;;33.90;51.10;;;;;;5052138;28;20068;-67
2022/08/12 12:56:09;;;;;;;9.48;1.95;;;33.60;51.00;;;;;;5053308;28;20048;-67
2022/08/12 12:58:36;;;;;;;9.68;2.05;;;33.70;51.70;;;;;;5018807;28;20076;-66
2022/08/12 13:01:02;;;;;;;9.13;3.45;;;33.90;50.60;;;;;;5051938;28;20063;-67
2022/08/12 13:03:31;;;;;;;;;;;33.70;50.30;;;;;;5052308;28;20456;-67
2022/08/12 13:05:59;;;;;;;5.05;1.70;;;33.60;50.70;;;;;;5052798;28;19920;-67
2022/08/12 13:08:30;;;;;;;7.55;1.77;;;33.70;50.30;;;;;;5035429;28;20041;-67
2022/08/12 13:11:02;;;;;;;3.63;1.90;;;33.60;50.80;;;;;;5035050;28;20037;-66
2022/08/12 13:13:30;;;;;;;5.72;1.83;;;33.40;50.90;;;;;;5053019;28;20435;-67
2022/08/12 13:16:00;;;;;;;3.40;1.95;;;33.50;51.40;;;;;;5035196;28;20099;-68
2022/08/12 13:18:35;;;;;;;6.45;1.80;;;33.60;51.60;;;;;;5053822;28;20051;-68
2022/08/12 13:21:02;;;;;;;3.63;1.67;;;33.80;51.30;;;;;;5052581;28;20484;-68
2022/08/12 13:23:28;;;;;;;6.45;2.17;;;33.90;51.10;;;;;;5035503;28;20184;-66
2022/08/12 13:25:55;;;;;;;6.47;2.00;;;33.80;50.60;;;;;;5034630;28;20057;-67
2022/08/12 13:28:27;;;;;;;11.38;1.90;;;33.80;50.80;;;;;;5034449;28;20045;-66
2022/08/12 13:30:58;;;;;;;3.53;1.75;;;33.80;50.30;;;;;;5052370;28;20483;-68
2022/08/12 13:33:28;;;;;;;4.07;1.45;;;33.90;50.50;;;;;;5034463;28;20093;-68
2022/08/12 13:36:02;;;;;;;6.80;2.08;;;34.00;50.30;;;;;;5053528;28;20090;-67
2022/08/12 13:38:40;;;;;;;5.70;2.20;;;34.30;50.70;;;;;;5054393;28;20053;-68
2022/08/12 13:41:17;;;;;;;5.57;1.70;;;34.50;50.20;;;;;;5054241;28;20116;-69
2022/08/12 13:43:43;;;;;;;;;;;34.60;49.90;;;;;;5053120;28;20048;-67
2022/08/12 13:46:16;;;;;;;4.50;1.70;;;34.60;50.90;;;;;;5052605;28;20345;-67
2022/08/12 13:48:42;;;;;;;2.92;1.80;;;34.70;50.20;;;;;;5052663;28;20041;-67
2022/08/12 13:51:07;;;;;;;8.25;1.98;;;34.70;50.20;;;;;;5034522;28;20052;-67
2022/08/12 13:53:33;;;;;;;10.40;2.63;;;34.90;49.50;;;;;;5034423;28;20041;-67
2022/08/12 13:55:59;;;;;;;3.00;1.70;;;35.10;49.10;;;;;;5052728;28;20037;-68
2022/08/12 13:58:24;;;;;;;8.53;1.60;;;35.10;49.40;;;;;;5034881;28;20448;-66
2022/08/12 14:00:52;;;;;;;4.47;2.00;;;35.30;49.50;;;;;;5052382;28;20041;-67
2022/08/12 14:03:22;;;;;;;6.55;2.00;;;35.50;49.00;;;;;;5037615;28;20064;-66
2022/08/12 14:05:48;;;;;;;8.00;2.15;;;35.50;48.80;;;;;;5038214;28;20056;-67
2022/08/12 14:08:15;;;;;;;5.03;1.70;;;35.60;48.90;;;;;;5038975;28;20044;-67
2022/08/12 14:10:54;;;;;;;4.25;1.80;;;35.60;49.10;;;;;;5056173;28;20040;-66
2022/08/12 14:13:28;;;;;;;5.05;1.90;;;35.70;49.50;;;;;;5056419;28;20037;-67
2022/08/12 14:15:59;;;;;;;5.57;1.70;;;35.90;49.10;;;;;;5055967;28;20098;-67
2022/08/12 14:18:29;;;;;;;7.60;1.70;;;35.60;49.30;;;;;;5038556;28;20045;-66
2022/08/12 14:21:00;;;;;;;4.57;1.80;;;35.10;49.70;;;;;;5054860;28;20053;-67
2022/08/12 14:23:29;;;;;;;3.13;1.80;;;35.10;49.60;;;;;;5056107;28;20544;-66
2022/08/12 14:25:57;;;;;;;6.45;1.85;;;35.40;49.10;;;;;;5055907;28;20041;-69
2022/08/12 14:28:23;;;;;;;5.10;1.80;;;35.70;49.10;;;;;;5056547;28;20041;-66
2022/08/12 14:31:01;;;;;;;6.93;1.80;;;35.90;49.00;;;;;;5055861;28;20446;-66
2022/08/12 14:33:30;;;;;;;4.43;1.85;;;36.00;49.10;;;;;;5056063;28;20279;-67
2022/08/12 14:35:56;;;;;;;10.18;2.17;;;35.90;49.40;;;;;;5056900;28;20515;-69
2022/08/12 14:38:24;;;;;;;;;;;35.90;50.40;;;;;;5057927;28;20056;-66
2022/08/12 14:40:58;;;;;;;5.32;2.08;;;35.50;51.00;;;;;;5075770;28;19924;-67
2022/08/12 14:43:27;;;;;;;6.13;2.10;;;35.40;50.80;;;;;;5064641;28;20056;-67
2022/08/12 14:45:55;;;;;;;4.95;2.00;;;35.00;50.50;;;;;;5037956;28;20400;-67